Time;durP1;ratioP1;P1;durP2;ratioP2;P2;SDS_P1;SDS_P2;PMS_P1;PMS_P2;Temp;Humidity;BMP_temperature;BMP_pressure;BME280_temperature;BME280_humidity;BME280_pressure;Samples;Min_cycle;Max_cycle;Signal;HPM_P1;HPM_P2
2022/03/20 00:00:32;;;;;;;8.23;5.90;;;4.90;99.90;;;;;;5078238;28;20583;-79
2022/03/20 00:02:58;;;;;;;9.00;5.30;;;4.90;99.90;;;;;;5044654;28;20518;-79
2022/03/20 00:05:25;;;;;;;11.77;6.10;;;4.80;99.90;;;;;;5086330;28;20040;-78
2022/03/20 00:07:51;;;;;;;10.23;5.87;;;4.80;99.90;;;;;;5066117;28;20040;-79
2022/03/20 00:10:17;;;;;;;9.43;5.87;;;4.70;99.90;;;;;;5046973;28;20380;-78
2022/03/20 00:12:43;;;;;;;11.67;6.40;;;4.70;99.90;;;;;;5109469;28;20047;-79
2022/03/20 00:15:09;;;;;;;9.63;5.97;;;4.60;99.90;;;;;;5062078;28;20499;-80
2022/03/20 00:17:36;;;;;;;9.17;5.70;;;4.60;99.90;;;;;;5063306;28;20040;-81
2022/03/20 00:20:04;;;;;;;11.67;6.40;;;4.60;99.90;;;;;;5079263;28;20401;-74
2022/03/20 00:22:34;;;;;;;10.87;5.80;;;4.50;99.90;;;;;;5082117;28;20065;-80
2022/03/20 00:25:01;;;;;;;11.10;5.93;;;4.50;99.90;;;;;;5064298;28;20050;-78
2022/03/20 00:27:28;;;;;;;11.50;6.50;;;4.50;99.90;;;;;;5043680;28;20075;-77
2022/03/20 00:29:54;;;;;;;10.87;6.23;;;4.50;99.90;;;;;;5044431;28;20056;-79
2022/03/20 00:32:20;;;;;;;10.93;5.77;;;4.50;99.90;;;;;;5064082;28;20039;-79
2022/03/20 00:34:46;;;;;;;12.60;6.90;;;4.40;99.90;;;;;;5063767;28;20458;-79
2022/03/20 00:37:12;;;;;;;12.67;6.30;;;4.40;99.90;;;;;;5079345;28;20040;-79
2022/03/20 00:39:40;;;;;;;13.37;6.20;;;4.40;99.90;;;;;;5047133;28;20444;-79
2022/03/20 00:42:06;;;;;;;12.93;6.23;;;4.40;99.90;;;;;;5086503;28;20048;-80
2022/03/20 00:44:32;;;;;;;10.63;6.57;;;4.30;99.90;;;;;;5047232;28;20044;-80
2022/03/20 00:46:58;;;;;;;12.23;6.40;;;4.30;99.90;;;;;;5064738;28;20035;-79
2022/03/20 00:49:23;;;;;;;13.13;5.97;;;4.20;99.90;;;;;;5081223;28;20051;-79
2022/03/20 00:51:49;;;;;;;13.83;6.13;;;4.20;99.90;;;;;;5081807;28;20043;-79
2022/03/20 00:54:15;;;;;;;11.67;5.87;;;4.20;99.90;;;;;;5080391;28;20043;-78
2022/03/20 00:56:42;;;;;;;14.83;6.87;;;4.20;99.90;;;;;;5080667;28;20089;-75
2022/03/20 00:59:08;;;;;;;10.60;6.30;;;4.20;99.90;;;;;;5062791;28;20055;-81
2022/03/20 01:01:34;;;;;;;15.87;6.40;;;4.20;99.90;;;;;;5064915;28;20466;-78
2022/03/20 01:03:59;;;;;;;10.13;6.07;;;4.20;99.90;;;;;;5051718;28;20043;-78
2022/03/20 01:06:25;;;;;;;13.87;6.10;;;4.10;99.90;;;;;;5058999;28;20044;-78
2022/03/20 01:08:52;;;;;;;11.47;6.53;;;4.20;99.90;;;;;;5056323;28;20075;-79
2022/03/20 01:11:19;;;;;;;13.93;5.60;;;4.20;99.90;;;;;;5062915;28;20066;-78
2022/03/20 01:13:46;;;;;;;13.07;6.23;;;4.10;99.90;;;;;;5097981;28;20059;-80
2022/03/20 01:16:12;;;;;;;17.33;6.73;;;4.10;99.90;;;;;;5081009;28;20491;-75
2022/03/20 01:18:38;;;;;;;13.13;6.73;;;4.20;99.90;;;;;;5100397;28;20052;-76
2022/03/20 01:21:04;;;;;;;12.00;6.23;;;4.20;99.90;;;;;;5064975;28;20044;-78
2022/03/20 01:23:30;;;;;;;11.33;5.47;;;4.10;99.90;;;;;;5080730;28;20123;-79
2022/03/20 01:25:56;;;;;;;11.20;6.47;;;4.10;99.90;;;;;;5063898;28;20082;-76
2022/03/20 01:28:23;;;;;;;12.83;5.97;;;4.10;99.90;;;;;;5079390;28;20052;-78
2022/03/20 01:30:50;;;;;;;9.67;6.50;;;4.10;99.90;;;;;;5072227;28;20047;-77
2022/03/20 01:33:17;;;;;;;10.97;6.33;;;4.10;99.90;;;;;;5064497;28;20051;-79
2022/03/20 01:35:43;;;;;;;7.90;4.90;;;4.10;99.90;;;;;;5064403;28;20455;-77
2022/03/20 01:38:10;;;;;;;11.10;6.33;;;4.00;99.90;;;;;;5063044;28;20533;-79
2022/03/20 01:40:36;;;;;;;15.87;6.63;;;4.00;99.90;;;;;;5048190;28;20313;-78
2022/03/20 01:43:03;;;;;;;10.90;6.50;;;3.90;99.90;;;;;;5063547;28;20043;-78
2022/03/20 01:45:30;;;;;;;13.93;6.20;;;3.90;99.90;;;;;;5082159;28;20103;-76
2022/03/20 01:47:57;;;;;;;12.37;6.30;;;3.90;99.90;;;;;;5098384;28;20082;-77
2022/03/20 01:50:25;;;;;;;12.50;6.47;;;3.90;99.90;;;;;;5082355;28;20052;-78
2022/03/20 01:52:52;;;;;;;13.17;6.40;;;3.90;99.90;;;;;;5080075;28;20185;-77
2022/03/20 01:55:20;;;;;;;12.73;6.80;;;3.90;99.90;;;;;;5076895;28;20039;-79
2022/03/20 01:57:45;;;;;;;12.40;6.40;;;3.80;99.90;;;;;;5078682;28;20052;-79
2022/03/20 02:00:14;;;;;;;15.37;6.87;;;3.80;99.90;;;;;;5081000;28;20308;-75
2022/03/20 02:02:40;;;;;;;13.83;6.87;;;3.80;99.90;;;;;;5079024;28;20539;-80
2022/03/20 02:05:09;;;;;;;11.73;6.70;;;3.80;99.90;;;;;;5098840;28;20297;-78
2022/03/20 02:07:35;;;;;;;13.53;7.30;;;3.70;99.90;;;;;;5097096;28;20048;-78
2022/03/20 02:10:02;;;;;;;13.27;6.47;;;3.70;99.90;;;;;;5098473;28;20407;-77
2022/03/20 02:12:29;;;;;;;13.03;7.20;;;3.60;99.90;;;;;;5065217;28;20514;-74
2022/03/20 02:14:56;;;;;;;13.23;7.30;;;3.60;99.90;;;;;;5096942;28;20044;-78
2022/03/20 02:17:21;;;;;;;12.93;7.20;;;3.60;99.90;;;;;;5063949;28;20046;-75
2022/03/20 02:19:47;;;;;;;16.97;7.33;;;3.60;99.90;;;;;;5083476;28;20305;-77
2022/03/20 02:22:14;;;;;;;14.93;7.93;;;3.60;99.90;;;;;;5067410;28;20059;-79
2022/03/20 02:24:42;;;;;;;14.83;8.27;;;3.60;99.90;;;;;;5103054;28;20089;-77
2022/03/20 02:27:12;;;;;;;14.33;8.13;;;3.50;99.90;;;;;;5050343;28;20337;-78
2022/03/20 02:29:39;;;;;;;10.80;7.63;;;3.50;99.90;;;;;;5083399;28;20039;-76
2022/03/20 02:32:07;;;;;;;14.77;8.00;;;3.50;99.90;;;;;;5098470;28;20291;-79
2022/03/20 02:34:33;;;;;;;13.57;7.47;;;3.50;99.90;;;;;;5103338;28;20047;-78
2022/03/20 02:37:03;;;;;;;15.47;8.47;;;3.50;99.90;;;;;;5097011;28;20314;-79
2022/03/20 02:39:31;;;;;;;16.53;8.23;;;3.40;99.90;;;;;;5066440;28;20358;-76
2022/03/20 02:42:00;;;;;;;15.87;7.53;;;3.40;99.90;;;;;;5101554;28;20316;-78
2022/03/20 02:44:52;;;;;;;11.93;7.27;;;3.40;99.90;;;;;;5082959;28;20314;-76
2022/03/20 02:47:23;;;;;;;15.80;8.40;;;3.50;99.90;;;;;;5101745;28;20306;-78
2022/03/20 02:49:50;;;;;;;14.90;8.13;;;3.40;99.90;;;;;;5082001;28;20313;-75
2022/03/20 02:52:16;;;;;;;16.30;8.20;;;3.40;99.90;;;;;;5066896;28;20301;-78
2022/03/20 02:54:43;;;;;;;13.00;8.07;;;3.40;99.90;;;;;;5083376;28;20297;-79
2022/03/20 02:57:09;;;;;;;14.30;8.33;;;3.40;99.90;;;;;;5068158;28;20419;-78
2022/03/20 02:59:35;;;;;;;18.43;9.23;;;3.40;99.90;;;;;;5086068;28;20293;-77
2022/03/20 03:02:01;;;;;;;17.47;9.23;;;3.40;99.90;;;;;;5100686;28;20044;-78
2022/03/20 03:04:27;;;;;;;17.53;8.77;;;3.40;99.90;;;;;;5065742;28;20059;-76
2022/03/20 03:06:53;;;;;;;14.07;9.37;;;3.40;99.90;;;;;;5100577;28;20785;-77
2022/03/20 03:12:05;;;;;;;19.17;10.05;;;3.40;99.90;;;;;;5099700;28;20066;-78
2022/03/20 03:17:27;;;;;;;16.83;9.63;;;3.40;99.90;;;;;;5065217;28;20317;-79
2022/03/20 03:19:54;;;;;;;18.60;9.73;;;3.40;99.90;;;;;;5096161;28;20036;-77
2022/03/20 03:22:20;;;;;;;17.67;8.70;;;3.30;99.90;;;;;;5083332;28;20304;-76
2022/03/20 03:24:45;;;;;;;15.13;9.87;;;3.30;99.90;;;;;;5083418;28;20306;-76
2022/03/20 03:27:12;;;;;;;16.67;9.50;;;3.30;99.90;;;;;;5078020;28;20393;-79
2022/03/20 03:29:40;;;;;;;17.47;9.30;;;3.30;99.90;;;;;;5111424;28;20062;-78
2022/03/20 03:32:06;;;;;;;16.50;9.73;;;3.20;99.90;;;;;;5071044;28;20051;-77
2022/03/20 03:37:22;;;;;;;18.30;10.83;;;3.30;99.90;;;;;;5044040;28;20294;-78
2022/03/20 03:39:48;;;;;;;17.83;10.47;;;3.30;99.90;;;;;;5067964;28;20545;-81
2022/03/20 03:42:15;;;;;;;22.50;10.70;;;3.30;99.90;;;;;;5099957;28;20329;-78
2022/03/20 03:44:41;;;;;;;21.03;10.23;;;3.30;99.90;;;;;;5048061;28;20044;-75
2022/03/20 03:47:07;;;;;;;16.13;10.27;;;3.20;99.90;;;;;;5084700;28;20294;-77
2022/03/20 03:49:36;;;;;;;19.47;10.23;;;3.20;99.90;;;;;;5062083;28;20805;-78
2022/03/20 03:52:03;;;;;;;19.43;10.30;;;3.20;99.90;;;;;;5064075;28;20388;-75
2022/03/20 03:54:29;;;;;;;20.37;10.70;;;3.10;99.90;;;;;;5105991;28;20297;-78
2022/03/20 03:56:55;;;;;;;21.37;10.63;;;3.20;99.90;;;;;;5083210;28;20305;-77
2022/03/20 03:59:22;;;;;;;15.97;10.03;;;3.10;99.90;;;;;;5097337;28;20043;-78
2022/03/20 04:01:49;;;;;;;17.67;11.17;;;3.10;99.90;;;;;;5080198;28;20131;-79
2022/03/20 04:04:14;;;;;;;18.50;10.70;;;3.00;99.90;;;;;;5064198;28;20302;-79
2022/03/20 04:06:41;;;;;;;18.13;10.80;;;3.00;99.90;;;;;;5064309;28;20327;-77
2022/03/20 04:09:07;;;;;;;23.40;11.37;;;3.00;99.90;;;;;;5047964;28;20036;-78
2022/03/20 04:11:32;;;;;;;17.00;11.00;;;2.90;99.90;;;;;;5064766;28;20359;-80
2022/03/20 04:13:58;;;;;;;21.87;12.37;;;2.90;99.90;;;;;;5065603;28;20496;-78
2022/03/20 04:16:25;;;;;;;18.80;10.97;;;2.90;99.90;;;;;;5064373;28;20091;-81
2022/03/20 04:18:51;;;;;;;20.83;12.37;;;2.90;99.90;;;;;;5058388;28;20083;-77
2022/03/20 04:21:17;;;;;;;20.60;12.20;;;2.90;99.90;;;;;;5100100;28;20294;-78
2022/03/20 04:23:46;;;;;;;20.47;12.50;;;2.90;99.90;;;;;;5099417;28;20048;-79
2022/03/20 04:26:13;;;;;;;24.03;11.83;;;2.80;99.90;;;;;;5101432;28;20789;-77
2022/03/20 04:28:41;;;;;;;17.90;12.03;;;2.80;99.90;;;;;;5065682;28;20707;-79
2022/03/20 04:31:07;;;;;;;23.60;13.00;;;2.80;99.90;;;;;;5100145;28;20325;-74
2022/03/20 04:33:35;;;;;;;18.60;11.87;;;2.80;99.90;;;;;;5094474;28;20302;-78
2022/03/20 04:36:01;;;;;;;19.53;12.60;;;2.80;99.90;;;;;;5066485;28;20050;-78
2022/03/20 04:38:27;;;;;;;21.60;13.23;;;2.80;99.90;;;;;;5064458;28;20347;-78
2022/03/20 04:40:53;;;;;;;24.87;12.60;;;2.80;99.90;;;;;;5046703;28;20720;-76
2022/03/20 04:43:19;;;;;;;25.00;13.33;;;2.80;99.90;;;;;;5089054;28;20306;-77
2022/03/20 04:45:45;;;;;;;23.53;13.03;;;2.70;99.90;;;;;;5100327;28;20042;-78
2022/03/20 04:59:24;;;;;;;;;;;2.70;99.90;;;;;;5063629;28;20043;-78
2022/03/20 05:01:50;;;;;;;21.87;12.27;;;2.70;99.90;;;;;;5081324;28;19978;-78
2022/03/20 05:04:16;;;;;;;23.30;13.17;;;2.70;99.90;;;;;;5103598;28;20115;-76
2022/03/20 05:06:43;;;;;;;21.20;12.87;;;2.60;99.90;;;;;;5098354;28;20062;-79
2022/03/20 05:14:38;;;;;;;22.30;13.03;;;2.60;99.90;;;;;;5098525;28;20301;-78
2022/03/20 05:17:05;;;;;;;26.10;14.37;;;2.60;99.90;;;;;;5099530;28;20294;-77
2022/03/20 05:19:33;;;;;;;19.20;13.63;;;2.60;99.90;;;;;;5081458;28;20491;-76
2022/03/20 05:22:01;;;;;;;24.13;14.13;;;2.60;99.90;;;;;;5099421;28;20345;-75
2022/03/20 05:24:26;;;;;;;19.00;12.40;;;2.60;99.90;;;;;;5098912;28;20813;-76
2022/03/20 05:26:52;;;;;;;23.60;13.87;;;2.60;99.90;;;;;;5090302;28;20308;-78
2022/03/20 05:29:18;;;;;;;21.60;13.33;;;2.60;99.90;;;;;;5097256;28;20060;-79
2022/03/20 05:31:45;;;;;;;22.77;13.73;;;2.60;99.90;;;;;;5085492;28;20075;-77
2022/03/20 05:34:12;;;;;;;23.97;13.73;;;2.60;99.90;;;;;;5064680;28;20035;-78
2022/03/20 05:36:38;;;;;;;24.60;14.63;;;2.60;99.90;;;;;;5095024;28;20301;-77
2022/03/20 05:39:05;;;;;;;22.97;14.37;;;2.60;99.90;;;;;;5096929;28;20381;-78
2022/03/20 05:41:47;;;;;;;24.30;14.37;;;2.60;99.90;;;;;;5078627;28;20305;-77
2022/03/20 05:44:13;;;;;;;24.13;14.67;;;2.60;99.90;;;;;;5064275;28;20317;-79
2022/03/20 05:46:40;;;;;;;26.03;14.40;;;2.60;99.90;;;;;;5083046;28;20673;-77
2022/03/20 05:49:06;;;;;;;24.27;14.33;;;2.60;99.90;;;;;;5079197;28;20389;-77
2022/03/20 05:51:32;;;;;;;23.50;14.47;;;2.50;99.90;;;;;;5099273;28;20392;-77
2022/03/20 05:53:58;;;;;;;23.77;14.50;;;2.50;99.90;;;;;;5098982;28;20305;-78
2022/03/20 05:59:09;;;;;;;26.33;15.33;;;2.60;99.90;;;;;;5075814;28;20101;-78
2022/03/20 06:01:35;;;;;;;24.10;13.53;;;2.60;99.90;;;;;;5084249;28;20289;-80
2022/03/20 06:04:03;;;;;;;22.93;15.30;;;2.60;99.90;;;;;;5079934;28;20040;-79
2022/03/20 06:06:30;;;;;;;27.27;14.30;;;2.60;99.90;;;;;;5047877;28;20320;-79
2022/03/20 06:08:55;;;;;;;24.43;15.03;;;2.60;99.90;;;;;;5052757;28;20299;-79
2022/03/20 06:11:21;;;;;;;23.67;14.50;;;2.60;99.90;;;;;;5098105;28;20646;-79
2022/03/20 06:13:48;;;;;;;26.87;15.07;;;2.70;99.90;;;;;;5063657;28;20040;-80
2022/03/20 06:16:15;;;;;;;24.47;14.53;;;2.70;99.90;;;;;;5065024;28;20048;-78
2022/03/20 06:18:42;;;;;;;26.03;14.87;;;2.80;99.90;;;;;;5089076;28;20815;-77
2022/03/20 06:21:08;;;;;;;20.70;12.83;;;2.80;99.90;;;;;;5099191;28;20290;-77
2022/03/20 06:23:34;;;;;;;26.63;15.43;;;2.90;99.90;;;;;;5079819;28;20353;-78
2022/03/20 06:25:59;;;;;;;24.87;13.60;;;3.00;99.90;;;;;;5098483;28;20036;-79
2022/03/20 06:28:26;;;;;;;24.27;15.33;;;3.00;99.90;;;;;;5080283;28;20534;-77
2022/03/20 06:30:54;;;;;;;22.83;14.80;;;3.10;99.90;;;;;;5078658;28;20780;-78
2022/03/20 06:33:20;;;;;;;25.33;14.63;;;3.20;99.90;;;;;;5100127;28;20358;-78
2022/03/20 06:35:47;;;;;;;26.93;15.20;;;3.30;99.90;;;;;;5094035;28;20302;-75
2022/03/20 06:38:13;;;;;;;26.60;13.77;;;3.40;99.90;;;;;;5093305;28;20301;-75
2022/03/20 06:40:39;;;;;;;22.63;14.30;;;3.40;99.90;;;;;;5082032;28;20669;-78
2022/03/20 06:43:06;;;;;;;23.80;14.87;;;3.40;99.90;;;;;;5097864;28;20491;-80
2022/03/20 06:45:32;;;;;;;21.40;14.23;;;3.40;99.90;;;;;;5099153;28;20036;-78
2022/03/20 06:47:59;;;;;;;26.80;15.03;;;3.40;99.90;;;;;;5081329;28;20304;-78
2022/03/20 06:50:25;;;;;;;23.77;14.30;;;3.40;99.90;;;;;;5098606;28;20310;-78
2022/03/20 06:52:51;;;;;;;25.87;15.50;;;3.50;99.90;;;;;;5081703;28;20363;-76
2022/03/20 06:55:18;;;;;;;25.07;15.23;;;3.50;99.90;;;;;;5099266;28;20048;-78
2022/03/20 06:57:46;;;;;;;22.73;14.97;;;3.50;99.90;;;;;;5086454;28;20298;-77
2022/03/20 07:00:13;;;;;;;23.40;14.67;;;3.60;99.90;;;;;;5080155;28;20313;-75
2022/03/20 07:02:53;;;;;;;21.73;15.17;;;3.60;99.90;;;;;;5064483;28;20325;-79
2022/03/20 07:05:21;;;;;;;26.47;14.27;;;3.80;99.90;;;;;;5066734;28;20298;-79
2022/03/20 07:07:50;;;;;;;21.70;13.27;;;4.10;99.90;;;;;;5103030;28;20097;-74
2022/03/20 07:10:19;;;;;;;24.73;15.30;;;4.20;99.90;;;;;;5085610;28;20319;-78
2022/03/20 07:12:46;;;;;;;22.40;15.30;;;4.50;99.90;;;;;;5084483;28;20289;-78
2022/03/20 07:15:13;;;;;;;20.73;14.50;;;4.80;99.90;;;;;;5070577;28;20044;-78
2022/03/20 07:17:40;;;;;;;26.20;15.70;;;4.90;99.90;;;;;;5102621;28;20040;-81
2022/03/20 07:20:10;;;;;;;24.33;15.27;;;5.20;99.90;;;;;;5085958;28;20040;-77
2022/03/20 07:22:38;;;;;;;23.07;15.03;;;5.60;99.90;;;;;;5103787;28;20115;-75
2022/03/20 07:30:33;;;;;;;21.65;14.73;;;5.90;99.90;;;;;;5098978;28;20109;-77
2022/03/20 07:32:59;;;;;;;22.73;15.00;;;6.00;99.90;;;;;;5084823;28;20299;-79
2022/03/20 07:35:25;;;;;;;22.80;13.90;;;6.20;99.90;;;;;;5083486;28;20494;-77
2022/03/20 07:37:53;;;;;;;25.97;14.90;;;6.20;99.90;;;;;;5063524;28;20039;-76
2022/03/20 07:40:18;;;;;;;23.30;14.67;;;5.90;99.90;;;;;;5101917;28;20062;-75
2022/03/20 07:42:44;;;;;;;17.47;11.27;;;5.70;99.90;;;;;;5095372;28;20044;-78
2022/03/20 07:45:10;;;;;;;27.03;15.33;;;5.60;99.90;;;;;;5085079;28;20044;-77
2022/03/20 07:47:36;;;;;;;22.43;13.00;;;5.50;99.90;;;;;;5101501;28;20079;-77
2022/03/20 07:50:06;;;;;;;19.63;12.63;;;5.40;99.90;;;;;;5085172;28;20051;-77
2022/03/20 07:52:34;;;;;;;25.00;14.57;;;5.30;99.90;;;;;;5101411;28;20036;-80
2022/03/20 07:55:02;;;;;;;24.73;14.13;;;5.20;99.90;;;;;;5063770;28;20036;-78
2022/03/20 07:57:29;;;;;;;23.20;15.53;;;5.30;99.90;;;;;;5080726;28;20048;-77
2022/03/20 07:59:56;;;;;;;24.30;14.80;;;5.30;99.90;;;;;;5066788;28;20071;-77
2022/03/20 08:02:23;;;;;;;19.60;12.93;;;5.40;99.90;;;;;;5071311;28;20077;-77
2022/03/20 08:04:49;;;;;;;21.07;14.40;;;5.50;99.90;;;;;;5089318;28;20054;-76
2022/03/20 08:07:15;;;;;;;24.03;15.37;;;5.50;99.90;;;;;;5100816;28;20086;-77
2022/03/20 08:09:40;;;;;;;22.63;15.30;;;5.60;99.90;;;;;;5099786;28;20044;-78
2022/03/20 08:12:08;;;;;;;25.13;15.10;;;5.60;99.90;;;;;;5082339;28;20517;-76
2022/03/20 08:14:36;;;;;;;25.23;15.43;;;5.70;99.90;;;;;;5101412;28;20047;-78
2022/03/20 08:17:06;;;;;;;22.83;15.10;;;5.80;99.90;;;;;;5067136;28;20066;-79
2022/03/20 08:19:32;;;;;;;24.03;14.93;;;5.90;99.90;;;;;;5089003;28;20047;-75
2022/03/20 08:21:59;;;;;;;24.13;13.93;;;6.00;99.70;;;;;;5081107;28;20044;-77
2022/03/20 08:24:25;;;;;;;25.47;16.67;;;6.00;99.20;;;;;;5081840;28;20071;-80
2022/03/20 08:26:51;;;;;;;28.20;14.57;;;6.10;99.90;;;;;;5067108;28;20047;-80
2022/03/20 08:29:19;;;;;;;22.20;15.10;;;6.20;99.30;;;;;;5098694;28;20111;-79
2022/03/20 08:31:45;;;;;;;23.00;14.13;;;6.40;98.90;;;;;;5099550;28;20052;-78
2022/03/20 08:34:13;;;;;;;22.50;14.60;;;6.60;99.00;;;;;;5056007;28;20036;-79
2022/03/20 08:36:39;;;;;;;22.70;14.57;;;6.80;97.90;;;;;;5084392;28;20040;-77
2022/03/20 08:39:05;;;;;;;25.93;15.03;;;7.00;97.80;;;;;;5076592;28;20043;-79
2022/03/20 08:41:33;;;;;;;24.10;13.50;;;7.20;95.80;;;;;;5096048;28;20061;-78
2022/03/20 08:43:59;;;;;;;22.30;15.57;;;7.40;95.70;;;;;;5047655;28;20061;-79
2022/03/20 08:46:29;;;;;;;21.37;14.67;;;7.70;95.90;;;;;;5078060;28;20048;-77
2022/03/20 08:48:54;;;;;;;29.37;16.90;;;8.20;95.10;;;;;;5077112;28;20097;-77
2022/03/20 08:51:21;;;;;;;25.23;16.27;;;8.40;92.60;;;;;;5095921;28;20048;-78
2022/03/20 08:53:48;;;;;;;24.53;15.20;;;8.60;92.10;;;;;;5079565;28;20147;-78
2022/03/20 08:56:15;;;;;;;23.87;15.77;;;8.60;91.20;;;;;;5091987;28;20032;-78
2022/03/20 08:58:41;;;;;;;24.40;15.37;;;8.60;90.90;;;;;;5037673;28;20112;-75
2022/03/20 09:01:07;;;;;;;25.00;15.40;;;8.60;89.30;;;;;;5095612;28;20474;-78
2022/03/20 09:03:34;;;;;;;28.80;16.57;;;8.60;90.40;;;;;;5095265;28;20043;-78
2022/03/20 09:06:00;;;;;;;26.50;14.87;;;8.60;90.40;;;;;;5094396;28;20055;-78
2022/03/20 09:08:26;;;;;;;24.77;15.80;;;8.70;87.50;;;;;;5060465;28;20491;-79
2022/03/20 09:10:52;;;;;;;24.13;16.37;;;8.60;85.30;;;;;;5079221;28;20059;-76
2022/03/20 09:13:17;;;;;;;24.00;15.43;;;8.60;85.80;;;;;;5068930;28;20058;-76
2022/03/20 09:15:43;;;;;;;24.90;16.43;;;8.60;84.10;;;;;;5064805;28;20048;-77
2022/03/20 09:20:55;;;;;;;;;;;8.70;83.30;;;;;;5095898;28;20495;-77
2022/03/20 09:23:21;;;;;;;24.37;16.87;;;8.70;83.70;;;;;;5076342;28;19924;-82
2022/03/20 09:25:46;;;;;;;25.23;17.10;;;8.90;85.30;;;;;;5077137;28;20089;-80
2022/03/20 09:28:12;;;;;;;28.40;17.27;;;9.20;83.50;;;;;;5074061;28;20032;-76
2022/03/20 09:30:40;;;;;;;25.13;17.23;;;9.40;80.40;;;;;;5090679;28;20051;-78
2022/03/20 09:33:08;;;;;;;25.47;16.73;;;10.00;79.40;;;;;;5048549;28;20044;-78
2022/03/20 09:35:34;;;;;;;25.13;15.87;;;10.50;76.60;;;;;;5059168;28;20126;-80
2022/03/20 09:38:03;;;;;;;26.80;18.00;;;11.00;73.00;;;;;;5058762;28;20043;-81
2022/03/20 09:40:29;;;;;;;25.90;16.93;;;11.50;70.90;;;;;;5074709;28;20045;-81
2022/03/20 09:42:55;;;;;;;25.80;17.80;;;12.20;66.60;;;;;;5060365;28;20066;-80
2022/03/20 09:45:21;;;;;;;25.40;17.37;;;12.60;63.80;;;;;;5060425;28;20044;-80
2022/03/20 09:47:48;;;;;;;23.83;16.20;;;13.20;62.30;;;;;;5078596;28;20059;-76
2022/03/20 09:50:15;;;;;;;24.10;16.10;;;13.40;56.90;;;;;;5096178;28;20036;-78
2022/03/20 09:52:42;;;;;;;23.80;17.73;;;13.40;55.30;;;;;;5064603;28;20044;-78
2022/03/20 09:55:11;;;;;;;24.17;18.13;;;13.70;57.00;;;;;;5061154;28;20551;-77
2022/03/20 09:57:37;;;;;;;23.77;17.83;;;14.20;54.20;;;;;;5051231;28;20098;-78
2022/03/20 10:00:06;;;;;;;26.77;18.23;;;14.50;54.40;;;;;;5057307;28;20047;-80
2022/03/20 10:02:32;;;;;;;27.33;17.37;;;14.70;51.20;;;;;;5091873;28;20044;-77
2022/03/20 10:04:59;;;;;;;25.23;17.30;;;14.80;50.80;;;;;;5097217;28;20048;-80
2022/03/20 10:07:30;;;;;;;24.23;17.53;;;15.10;48.20;;;;;;5059071;28;20040;-78
2022/03/20 10:10:07;;;;;;;23.80;16.73;;;14.90;49.70;;;;;;5095737;28;20048;-80
2022/03/20 10:12:35;;;;;;;25.03;17.97;;;14.80;47.90;;;;;;5058762;28;20082;-79
2022/03/20 10:15:05;;;;;;;24.50;17.57;;;14.70;49.20;;;;;;5045282;28;20109;-79
2022/03/20 10:17:31;;;;;;;25.30;18.20;;;15.30;50.20;;;;;;5061840;28;20040;-81
2022/03/20 10:20:12;;;;;;;23.03;17.80;;;15.40;47.00;;;;;;5091567;28;20376;-80
2022/03/20 10:22:38;;;;;;;24.87;18.03;;;15.10;47.00;;;;;;5072606;28;20048;-78
2022/03/20 10:25:11;;;;;;;27.20;18.97;;;15.20;46.80;;;;;;5093557;28;20099;-79
2022/03/20 10:27:39;;;;;;;27.60;16.57;;;15.40;47.90;;;;;;5072396;28;20123;-81
2022/03/20 10:30:08;;;;;;;26.20;18.20;;;15.70;46.30;;;;;;5076531;28;20547;-81
2022/03/20 10:32:35;;;;;;;24.53;17.73;;;15.50;46.90;;;;;;5075266;28;20036;-79
2022/03/20 10:35:04;;;;;;;26.67;18.83;;;15.70;45.50;;;;;;5065791;28;20046;-79
2022/03/20 10:37:48;;;;;;;27.70;18.70;;;15.80;45.30;;;;;;5081994;28;20135;-81
2022/03/20 10:40:16;;;;;;;28.90;18.20;;;15.70;44.70;;;;;;5063062;28;20039;-80
2022/03/20 10:42:44;;;;;;;25.53;18.83;;;15.70;44.70;;;;;;5103823;28;20036;-78
2022/03/20 10:45:11;;;;;;;26.40;19.93;;;15.80;45.90;;;;;;5074737;28;20033;-78
2022/03/20 10:47:39;;;;;;;24.77;18.37;;;16.00;44.60;;;;;;5079515;28;20289;-78
2022/03/20 10:50:07;;;;;;;27.83;18.90;;;16.00;43.40;;;;;;5104578;28;20099;-79
2022/03/20 10:52:36;;;;;;;28.97;19.90;;;15.80;43.40;;;;;;5064003;28;20032;-81
2022/03/20 10:55:07;;;;;;;30.83;19.37;;;15.80;44.20;;;;;;5100544;28;20039;-79
2022/03/20 10:57:34;;;;;;;25.93;19.27;;;15.90;43.60;;;;;;5075457;28;20104;-79
2022/03/20 11:00:05;;;;;;;25.53;19.57;;;15.70;44.20;;;;;;5079315;28;20507;-80
2022/03/20 11:02:35;;;;;;;26.20;19.27;;;15.80;44.60;;;;;;5073843;28;20048;-81
2022/03/20 11:05:05;;;;;;;29.53;19.00;;;16.10;45.10;;;;;;5065256;28;20050;-78
2022/03/20 11:07:31;;;;;;;27.70;19.87;;;16.30;43.20;;;;;;5060411;28;20519;-79
2022/03/20 11:10:00;;;;;;;26.87;18.07;;;16.30;42.40;;;;;;5064906;28;20044;-78
2022/03/20 11:12:29;;;;;;;30.07;19.50;;;16.10;42.70;;;;;;5095800;28;20090;-79
2022/03/20 11:14:57;;;;;;;27.43;20.07;;;16.00;42.90;;;;;;5101324;28;20098;-78
2022/03/20 11:17:32;;;;;;;31.77;19.23;;;15.80;42.50;;;;;;5064075;28;20036;-77
2022/03/20 11:19:59;;;;;;;26.40;19.33;;;15.90;42.70;;;;;;5082112;28;20065;-81
2022/03/20 11:22:26;;;;;;;25.07;19.73;;;15.70;43.10;;;;;;5081960;28;20040;-79
2022/03/20 11:24:55;;;;;;;28.80;20.30;;;15.50;43.20;;;;;;5098557;28;20385;-78
2022/03/20 11:27:24;;;;;;;27.43;19.37;;;15.50;43.20;;;;;;5088369;28;20115;-77
2022/03/20 11:29:51;;;;;;;30.23;20.40;;;15.50;43.50;;;;;;5083079;28;20073;-79
2022/03/20 11:32:18;;;;;;;26.03;17.33;;;15.40;43.60;;;;;;5079184;28;20063;-78
2022/03/20 11:34:46;;;;;;;31.60;20.43;;;15.50;43.10;;;;;;5081725;28;20058;-78
2022/03/20 11:37:13;;;;;;;28.13;20.50;;;15.20;43.60;;;;;;5083577;28;20055;-77
2022/03/20 11:40:10;;;;;;;27.43;18.97;;;15.10;44.10;;;;;;5101101;28;20036;-77
2022/03/20 11:42:36;;;;;;;31.53;20.80;;;15.10;44.00;;;;;;5065002;28;20059;-79
2022/03/20 11:45:20;;;;;;;26.30;19.53;;;15.10;44.00;;;;;;5066955;28;20048;-79
2022/03/20 11:47:47;;;;;;;28.20;18.98;;;14.80;44.00;;;;;;5048463;28;20105;-78
2022/03/20 11:50:22;;;;;;;26.33;17.37;;;14.80;44.00;;;;;;5066754;28;20059;-77
2022/03/20 11:53:00;;;;;;;28.98;19.85;;;14.60;44.70;;;;;;5097271;28;20048;-77
2022/03/20 11:55:32;;;;;;;27.17;19.23;;;14.80;45.70;;;;;;5100873;28;20063;-78
2022/03/20 11:57:59;;;;;;;29.70;19.40;;;14.90;46.30;;;;;;5064959;28;20047;-78
2022/03/20 12:00:27;;;;;;;29.10;20.13;;;14.90;44.60;;;;;;5065874;28;20039;-78
2022/03/20 12:03:42;;;;;;;27.27;18.77;;;14.80;44.80;;;;;;5096641;28;20036;-82
2022/03/20 12:06:36;;;;;;;28.15;18.98;;;14.80;44.60;;;;;;5084201;28;20044;-80
2022/03/20 12:09:10;;;;;;;33.05;20.98;;;14.40;45.00;;;;;;5056798;28;20056;-78
2022/03/20 12:11:53;;;;;;;38.43;19.33;;;14.00;45.80;;;;;;5080247;28;20040;-77
2022/03/20 12:14:28;;;;;;;29.47;19.87;;;13.90;45.60;;;;;;5099277;28;20578;-78
2022/03/20 12:16:58;;;;;;;27.93;19.43;;;14.00;46.40;;;;;;5064507;28;20040;-80
2022/03/20 12:19:36;;;;;;;28.20;20.37;;;14.20;46.00;;;;;;5097233;28;20048;-80
2022/03/20 12:22:07;;;;;;;31.23;20.07;;;14.30;46.80;;;;;;5077848;28;20047;-79
2022/03/20 12:24:49;;;;;;;28.33;19.30;;;14.60;45.90;;;;;;5099719;28;20040;-77
2022/03/20 12:27:41;;;;;;;31.83;20.70;;;14.40;45.20;;;;;;5063851;28;20043;-78
2022/03/20 12:30:35;;;;;;;30.93;20.37;;;14.10;45.50;;;;;;5097359;28;20488;-78
2022/03/20 12:33:04;;;;;;;26.60;19.65;;;13.80;46.60;;;;;;5057528;28;20048;-78
2022/03/20 12:35:42;;;;;;;30.83;21.07;;;13.70;47.40;;;;;;5062223;28;20048;-77
2022/03/20 12:38:34;;;;;;;31.13;19.07;;;13.80;48.30;;;;;;5061405;28;20044;-78
2022/03/20 12:41:06;;;;;;;29.53;20.80;;;13.60;46.80;;;;;;5077675;28;20053;-78
2022/03/20 12:43:35;;;;;;;31.27;19.83;;;13.40;48.20;;;;;;5081293;28;20040;-78
2022/03/20 12:46:01;;;;;;;28.40;20.23;;;13.10;47.60;;;;;;5098897;28;20089;-77
2022/03/20 12:48:31;;;;;;;28.10;19.63;;;12.70;48.70;;;;;;5062177;28;20040;-79
2022/03/20 12:50:59;;;;;;;25.53;18.57;;;12.50;48.80;;;;;;5080155;28;20044;-79
2022/03/20 12:53:37;;;;;;;33.10;21.20;;;12.40;49.60;;;;;;5097100;28;20396;-78
2022/03/20 12:56:28;;;;;;;27.43;19.47;;;12.20;50.00;;;;;;5068128;28;20036;-79
2022/03/20 12:58:49;;;;;;;31.53;21.40;;;12.20;50.80;;;;;;5079328;28;20047;-79
2022/03/20 13:01:15;;;;;;;33.67;21.40;;;12.20;51.40;;;;;;5066696;28;20032;-77
2022/03/20 13:03:42;;;;;;;30.80;21.10;;;12.20;51.30;;;;;;5057665;28;20046;-78
2022/03/20 13:06:08;;;;;;;30.20;20.63;;;12.30;51.30;;;;;;5096610;28;20370;-78
2022/03/20 13:08:37;;;;;;;29.80;20.80;;;12.30;51.40;;;;;;5095863;28;20062;-77
2022/03/20 13:11:06;;;;;;;31.20;21.73;;;12.20;51.00;;;;;;5084731;28;20044;-79
2022/03/20 13:13:34;;;;;;;31.23;20.27;;;12.00;51.80;;;;;;5046539;28;20055;-79
2022/03/20 13:16:01;;;;;;;28.03;19.63;;;11.80;51.80;;;;;;5099721;28;20032;-80
2022/03/20 13:18:30;;;;;;;33.00;21.87;;;11.60;52.20;;;;;;5061275;28;20044;-78